sensor_id;sensor_type;location;lat;lon;timestamp;temperature;humidity
68217;DHT22;55037;52.354;4.992;2023-07-13T00:00:52;18.40;87.90
68217;DHT22;55037;52.354;4.992;2023-07-13T00:03:20;18.50;87.90
68217;DHT22;55037;52.354;4.992;2023-07-13T00:05:57;18.40;87.80
68217;DHT22;55037;52.354;4.992;2023-07-13T00:08:25;18.40;87.70
68217;DHT22;55037;52.354;4.992;2023-07-13T00:10:52;18.40;87.80
68217;DHT22;55037;52.354;4.992;2023-07-13T00:13:21;18.40;88.00
68217;DHT22;55037;52.354;4.992;2023-07-13T00:15:49;18.30;88.10
68217;DHT22;55037;52.354;4.992;2023-07-13T00:18:16;18.30;88.20
68217;DHT22;55037;52.354;4.992;2023-07-13T00:20:44;18.30;88.20
68217;DHT22;55037;52.354;4.992;2023-07-13T00:23:11;18.40;88.30
68217;DHT22;55037;52.354;4.992;2023-07-13T00:25:39;18.30;88.30
68217;DHT22;55037;52.354;4.992;2023-07-13T00:28:06;18.30;88.40
68217;DHT22;55037;52.354;4.992;2023-07-13T00:30:33;18.30;88.50
68217;DHT22;55037;52.354;4.992;2023-07-13T00:33:01;18.30;88.60
68217;DHT22;55037;52.354;4.992;2023-07-13T00:35:43;18.40;88.70
68217;DHT22;55037;52.354;4.992;2023-07-13T00:38:12;18.40;88.70
68217;DHT22;55037;52.354;4.992;2023-07-13T00:40:40;18.40;88.60
68217;DHT22;55037;52.354;4.992;2023-07-13T00:43:17;18.40;89.50
68217;DHT22;55037;52.354;4.992;2023-07-13T00:48:18;18.50;88.50
68217;DHT22;55037;52.354;4.992;2023-07-13T00:50:49;18.50;88.50
68217;DHT22;55037;52.354;4.992;2023-07-13T00:53:19;18.60;88.50
68217;DHT22;55037;52.354;4.992;2023-07-13T00:55:48;18.50;88.30
68217;DHT22;55037;52.354;4.992;2023-07-13T00:58:17;18.60;88.30
68217;DHT22;55037;52.354;4.992;2023-07-13T01:00:45;18.60;88.20
68217;DHT22;55037;52.354;4.992;2023-07-13T01:03:14;18.50;88.10
68217;DHT22;55037;52.354;4.992;2023-07-13T01:05:42;18.50;88.30
68217;DHT22;55037;52.354;4.992;2023-07-13T01:08:10;18.50;88.50
68217;DHT22;55037;52.354;4.992;2023-07-13T01:10:37;18.50;88.70
68217;DHT22;55037;52.354;4.992;2023-07-13T01:13:10;18.50;88.70
68217;DHT22;55037;52.354;4.992;2023-07-13T01:15:40;18.60;88.70
68217;DHT22;55037;52.354;4.992;2023-07-13T01:18:13;18.60;88.50
68217;DHT22;55037;52.354;4.992;2023-07-13T01:20:46;18.60;88.30
68217;DHT22;55037;52.354;4.992;2023-07-13T01:23:14;18.60;88.00
68217;DHT22;55037;52.354;4.992;2023-07-13T01:25:42;18.60;87.80
68217;DHT22;55037;52.354;4.992;2023-07-13T01:28:09;18.60;87.70
68217;DHT22;55037;52.354;4.992;2023-07-13T01:30:39;18.50;87.60
68217;DHT22;55037;52.354;4.992;2023-07-13T01:33:08;18.50;87.60
68217;DHT22;55037;52.354;4.992;2023-07-13T01:35:37;18.50;87.60
68217;DHT22;55037;52.354;4.992;2023-07-13T01:38:05;18.40;87.60
68217;DHT22;55037;52.354;4.992;2023-07-13T01:40:32;18.30;87.50
68217;DHT22;55037;52.354;4.992;2023-07-13T01:43:00;18.30;87.50
68217;DHT22;55037;52.354;4.992;2023-07-13T01:45:28;18.30;87.60
68217;DHT22;55037;52.354;4.992;2023-07-13T01:47:55;18.30;87.50
68217;DHT22;55037;52.354;4.992;2023-07-13T01:50:24;18.30;87.60
68217;DHT22;55037;52.354;4.992;2023-07-13T01:52:52;18.30;87.70
68217;DHT22;55037;52.354;4.992;2023-07-13T01:55:21;18.20;87.60
68217;DHT22;55037;52.354;4.992;2023-07-13T01:57:49;18.20;87.60
68217;DHT22;55037;52.354;4.992;2023-07-13T02:00:17;18.20;87.60
68217;DHT22;55037;52.354;4.992;2023-07-13T02:02:48;18.20;87.60
68217;DHT22;55037;52.354;4.992;2023-07-13T02:05:16;18.10;87.60
68217;DHT22;55037;52.354;4.992;2023-07-13T02:07:44;18.10;87.60
68217;DHT22;55037;52.354;4.992;2023-07-13T02:10:12;18.10;87.60
68217;DHT22;55037;52.354;4.992;2023-07-13T02:12:41;18.10;87.70
68217;DHT22;55037;52.354;4.992;2023-07-13T02:15:09;18.10;87.70
68217;DHT22;55037;52.354;4.992;2023-07-13T02:17:37;18.00;87.60
68217;DHT22;55037;52.354;4.992;2023-07-13T02:20:05;18.00;87.60
68217;DHT22;55037;52.354;4.992;2023-07-13T02:22:32;18.00;87.70
68217;DHT22;55037;52.354;4.992;2023-07-13T02:25:00;18.00;87.60
68217;DHT22;55037;52.354;4.992;2023-07-13T02:27:27;18.00;87.60
68217;DHT22;55037;52.354;4.992;2023-07-13T02:29:55;18.00;87.60
68217;DHT22;55037;52.354;4.992;2023-07-13T02:32:22;17.90;87.60
68217;DHT22;55037;52.354;4.992;2023-07-13T02:34:52;17.90;87.60
68217;DHT22;55037;52.354;4.992;2023-07-13T02:37:20;18.00;87.60
68217;DHT22;55037;52.354;4.992;2023-07-13T02:39:48;17.90;86.80
68217;DHT22;55037;52.354;4.992;2023-07-13T02:42:16;17.90;87.70
68217;DHT22;55037;52.354;4.992;2023-07-13T02:44:44;18.00;87.70
68217;DHT22;55037;52.354;4.992;2023-07-13T02:47:11;18.00;87.70
68217;DHT22;55037;52.354;4.992;2023-07-13T02:49:40;18.00;87.70
68217;DHT22;55037;52.354;4.992;2023-07-13T02:52:07;18.00;87.60
68217;DHT22;55037;52.354;4.992;2023-07-13T02:54:35;18.00;87.40
68217;DHT22;55037;52.354;4.992;2023-07-13T02:57:02;18.00;87.10
68217;DHT22;55037;52.354;4.992;2023-07-13T02:59:30;18.10;87.20
68217;DHT22;55037;52.354;4.992;2023-07-13T03:01:57;18.10;87.20
68217;DHT22;55037;52.354;4.992;2023-07-13T03:04:25;18.10;87.20
68217;DHT22;55037;52.354;4.992;2023-07-13T03:06:52;18.10;87.10
68217;DHT22;55037;52.354;4.992;2023-07-13T03:09:20;18.10;87.00
68217;DHT22;55037;52.354;4.992;2023-07-13T03:11:55;18.10;87.00
68217;DHT22;55037;52.354;4.992;2023-07-13T03:14:28;18.10;87.00
68217;DHT22;55037;52.354;4.992;2023-07-13T03:16:58;18.10;87.00
68217;DHT22;55037;52.354;4.992;2023-07-13T03:19:29;18.00;86.80
68217;DHT22;55037;52.354;4.992;2023-07-13T03:21:57;18.00;86.80
68217;DHT22;55037;52.354;4.992;2023-07-13T03:24:24;17.90;86.70
68217;DHT22;55037;52.354;4.992;2023-07-13T03:26:53;17.90;86.50
68217;DHT22;55037;52.354;4.992;2023-07-13T03:29:21;17.90;86.60
68217;DHT22;55037;52.354;4.992;2023-07-13T03:31:48;17.90;86.60
68217;DHT22;55037;52.354;4.992;2023-07-13T03:34:16;17.90;86.60
68217;DHT22;55037;52.354;4.992;2023-07-13T03:36:43;17.90;86.70
68217;DHT22;55037;52.354;4.992;2023-07-13T03:39:13;17.90;86.50
68217;DHT22;55037;52.354;4.992;2023-07-13T03:41:53;17.90;86.50
68217;DHT22;55037;52.354;4.992;2023-07-13T03:44:22;17.90;86.60
68217;DHT22;55037;52.354;4.992;2023-07-13T03:46:53;17.90;86.60
68217;DHT22;55037;52.354;4.992;2023-07-13T03:49:21;17.90;86.50
68217;DHT22;55037;52.354;4.992;2023-07-13T03:51:48;17.90;86.50
68217;DHT22;55037;52.354;4.992;2023-07-13T03:54:20;17.90;86.40
68217;DHT22;55037;52.354;4.992;2023-07-13T03:56:47;17.90;87.40
68217;DHT22;55037;52.354;4.992;2023-07-13T03:59:16;17.90;86.40
68217;DHT22;55037;52.354;4.992;2023-07-13T04:01:45;17.90;86.60
68217;DHT22;55037;52.354;4.992;2023-07-13T04:04:13;17.90;86.40
68217;DHT22;55037;52.354;4.992;2023-07-13T04:06:40;18.00;86.40
68217;DHT22;55037;52.354;4.992;2023-07-13T04:09:08;18.00;86.40
68217;DHT22;55037;52.354;4.992;2023-07-13T04:11:36;18.00;86.30
68217;DHT22;55037;52.354;4.992;2023-07-13T04:14:04;18.00;87.30
68217;DHT22;55037;52.354;4.992;2023-07-13T04:16:31;18.00;86.40
68217;DHT22;55037;52.354;4.992;2023-07-13T04:18:59;18.00;86.40
68217;DHT22;55037;52.354;4.992;2023-07-13T04:21:29;18.00;86.40
68217;DHT22;55037;52.354;4.992;2023-07-13T04:23:57;18.00;86.50
68217;DHT22;55037;52.354;4.992;2023-07-13T04:26:25;18.10;86.50
68217;DHT22;55037;52.354;4.992;2023-07-13T04:28:52;18.10;86.50
68217;DHT22;55037;52.354;4.992;2023-07-13T04:31:20;18.20;86.50
68217;DHT22;55037;52.354;4.992;2023-07-13T04:33:48;18.20;86.50
68217;DHT22;55037;52.354;4.992;2023-07-13T04:36:16;18.20;86.50
68217;DHT22;55037;52.354;4.992;2023-07-13T04:38:43;18.20;86.40
68217;DHT22;55037;52.354;4.992;2023-07-13T04:41:13;18.30;86.30
68217;DHT22;55037;52.354;4.992;2023-07-13T04:43:41;18.30;86.40
68217;DHT22;55037;52.354;4.992;2023-07-13T04:46:11;18.30;86.30
68217;DHT22;55037;52.354;4.992;2023-07-13T04:48:39;18.30;86.40
68217;DHT22;55037;52.354;4.992;2023-07-13T04:51:07;18.40;86.60
68217;DHT22;55037;52.354;4.992;2023-07-13T04:53:34;18.50;86.60
68217;DHT22;55037;52.354;4.992;2023-07-13T04:56:05;18.60;86.20
68217;DHT22;55037;52.354;4.992;2023-07-13T04:58:33;18.70;86.40
68217;DHT22;55037;52.354;4.992;2023-07-13T05:01:02;18.80;86.20
68217;DHT22;55037;52.354;4.992;2023-07-13T05:03:30;18.80;86.10
68217;DHT22;55037;52.354;4.992;2023-07-13T05:06:03;18.90;85.80
68217;DHT22;55037;52.354;4.992;2023-07-13T05:08:31;19.00;85.20
68217;DHT22;55037;52.354;4.992;2023-07-13T05:11:04;19.00;85.00
68217;DHT22;55037;52.354;4.992;2023-07-13T05:13:32;19.00;84.90
68217;DHT22;55037;52.354;4.992;2023-07-13T05:16:02;19.00;84.60
68217;DHT22;55037;52.354;4.992;2023-07-13T05:18:30;19.00;84.70
68217;DHT22;55037;52.354;4.992;2023-07-13T05:21:08;18.90;84.60
68217;DHT22;55037;52.354;4.992;2023-07-13T05:23:37;18.90;84.80
68217;DHT22;55037;52.354;4.992;2023-07-13T05:26:04;18.90;84.90
68217;DHT22;55037;52.354;4.992;2023-07-13T05:28:36;19.00;84.70
68217;DHT22;55037;52.354;4.992;2023-07-13T05:31:06;19.00;85.00
68217;DHT22;55037;52.354;4.992;2023-07-13T05:33:34;19.00;84.80
68217;DHT22;55037;52.354;4.992;2023-07-13T05:36:02;19.00;84.70
68217;DHT22;55037;52.354;4.992;2023-07-13T05:38:29;19.00;84.80
68217;DHT22;55037;52.354;4.992;2023-07-13T05:40:57;19.00;85.20
68217;DHT22;55037;52.354;4.992;2023-07-13T05:43:25;19.10;85.50
68217;DHT22;55037;52.354;4.992;2023-07-13T05:45:56;19.20;85.60
68217;DHT22;55037;52.354;4.992;2023-07-13T05:48:24;19.40;85.50
68217;DHT22;55037;52.354;4.992;2023-07-13T05:50:51;19.50;85.10
68217;DHT22;55037;52.354;4.992;2023-07-13T05:53:18;19.60;85.10
68217;DHT22;55037;52.354;4.992;2023-07-13T05:55:48;19.60;85.00
68217;DHT22;55037;52.354;4.992;2023-07-13T05:58:18;19.70;85.00
68217;DHT22;55037;52.354;4.992;2023-07-13T06:00:46;19.80;84.60
68217;DHT22;55037;52.354;4.992;2023-07-13T06:03:15;19.90;84.80
68217;DHT22;55037;52.354;4.992;2023-07-13T06:05:42;20.00;84.50
68217;DHT22;55037;52.354;4.992;2023-07-13T06:08:10;20.00;84.60
68217;DHT22;55037;52.354;4.992;2023-07-13T06:10:37;20.20;84.90
68217;DHT22;55037;52.354;4.992;2023-07-13T06:13:05;20.40;84.80
68217;DHT22;55037;52.354;4.992;2023-07-13T06:15:32;20.60;84.70
68217;DHT22;55037;52.354;4.992;2023-07-13T06:18:00;20.70;83.10
68217;DHT22;55037;52.354;4.992;2023-07-13T06:20:28;20.80;83.20
68217;DHT22;55037;52.354;4.992;2023-07-13T06:22:56;21.10;83.20
68217;DHT22;55037;52.354;4.992;2023-07-13T06:25:23;21.30;82.60
68217;DHT22;55037;52.354;4.992;2023-07-13T06:27:51;21.50;81.80
68217;DHT22;55037;52.354;4.992;2023-07-13T06:30:18;21.70;81.80
68217;DHT22;55037;52.354;4.992;2023-07-13T06:32:45;21.90;81.20
68217;DHT22;55037;52.354;4.992;2023-07-13T06:35:13;22.10;80.90
68217;DHT22;55037;52.354;4.992;2023-07-13T06:37:41;22.30;80.30
68217;DHT22;55037;52.354;4.992;2023-07-13T06:40:08;22.30;78.50
68217;DHT22;55037;52.354;4.992;2023-07-13T06:42:36;22.20;78.00
68217;DHT22;55037;52.354;4.992;2023-07-13T06:45:05;21.90;77.40
68217;DHT22;55037;52.354;4.992;2023-07-13T06:47:33;21.60;78.10
68217;DHT22;55037;52.354;4.992;2023-07-13T06:50:01;21.50;78.60
68217;DHT22;55037;52.354;4.992;2023-07-13T06:52:28;21.30;78.80
68217;DHT22;55037;52.354;4.992;2023-07-13T06:54:56;21.20;78.50
68217;DHT22;55037;52.354;4.992;2023-07-13T06:57:23;21.20;78.70
68217;DHT22;55037;52.354;4.992;2023-07-13T06:59:51;21.10;78.60
68217;DHT22;55037;52.354;4.992;2023-07-13T07:02:18;21.10;79.20
68217;DHT22;55037;52.354;4.992;2023-07-13T07:04:45;21.10;78.90
68217;DHT22;55037;52.354;4.992;2023-07-13T07:07:13;21.10;78.80
68217;DHT22;55037;52.354;4.992;2023-07-13T07:09:40;21.30;78.90
68217;DHT22;55037;52.354;4.992;2023-07-13T07:12:07;21.60;79.10
68217;DHT22;55037;52.354;4.992;2023-07-13T07:14:35;21.80;78.20
68217;DHT22;55037;52.354;4.992;2023-07-13T07:17:03;22.00;76.60
68217;DHT22;55037;52.354;4.992;2023-07-13T07:19:32;22.10;76.20
68217;DHT22;55037;52.354;4.992;2023-07-13T07:22:01;22.20;76.80
68217;DHT22;55037;52.354;4.992;2023-07-13T07:24:29;22.40;75.70
68217;DHT22;55037;52.354;4.992;2023-07-13T07:26:56;22.60;75.50
68217;DHT22;55037;52.354;4.992;2023-07-13T07:29:26;22.60;74.60
68217;DHT22;55037;52.354;4.992;2023-07-13T07:31:59;22.70;73.60
68217;DHT22;55037;52.354;4.992;2023-07-13T07:34:44;22.60;73.60
68217;DHT22;55037;52.354;4.992;2023-07-13T07:37:13;22.60;74.60
68217;DHT22;55037;52.354;4.992;2023-07-13T07:39:43;22.70;74.10
68217;DHT22;55037;52.354;4.992;2023-07-13T07:42:32;22.70;74.40
68217;DHT22;55037;52.354;4.992;2023-07-13T07:44:59;22.70;73.70
68217;DHT22;55037;52.354;4.992;2023-07-13T07:47:28;22.70;74.90
68217;DHT22;55037;52.354;4.992;2023-07-13T07:49:57;22.90;74.80
68217;DHT22;55037;52.354;4.992;2023-07-13T07:52:24;23.20;73.10
68217;DHT22;55037;52.354;4.992;2023-07-13T07:54:52;23.40;72.90
68217;DHT22;55037;52.354;4.992;2023-07-13T07:57:22;23.50;73.00
68217;DHT22;55037;52.354;4.992;2023-07-13T07:59:52;23.40;72.00
68217;DHT22;55037;52.354;4.992;2023-07-13T08:02:24;23.30;71.60
68217;DHT22;55037;52.354;4.992;2023-07-13T08:04:55;23.10;71.60
68217;DHT22;55037;52.354;4.992;2023-07-13T08:07:25;23.00;72.60
68217;DHT22;55037;52.354;4.992;2023-07-13T08:09:53;23.00;72.60
68217;DHT22;55037;52.354;4.992;2023-07-13T08:12:20;23.10;73.00
68217;DHT22;55037;52.354;4.992;2023-07-13T08:14:51;23.20;72.70
68217;DHT22;55037;52.354;4.992;2023-07-13T08:17:20;23.30;72.70
68217;DHT22;55037;52.354;4.992;2023-07-13T08:19:48;23.50;70.70
68217;DHT22;55037;52.354;4.992;2023-07-13T08:22:15;23.50;71.40
68217;DHT22;55037;52.354;4.992;2023-07-13T08:24:43;23.50;71.30
68217;DHT22;55037;52.354;4.992;2023-07-13T08:27:11;23.50;70.40
68217;DHT22;55037;52.354;4.992;2023-07-13T08:29:39;23.50;71.00
68217;DHT22;55037;52.354;4.992;2023-07-13T08:32:07;23.60;70.80
68217;DHT22;55037;52.354;4.992;2023-07-13T08:34:37;23.80;70.70
68217;DHT22;55037;52.354;4.992;2023-07-13T08:37:04;23.80;70.20
68217;DHT22;55037;52.354;4.992;2023-07-13T08:39:32;24.10;69.90
68217;DHT22;55037;52.354;4.992;2023-07-13T08:42:04;24.20;67.80
68217;DHT22;55037;52.354;4.992;2023-07-13T08:44:59;24.10;68.80
68217;DHT22;55037;52.354;4.992;2023-07-13T08:47:30;24.10;67.90
68217;DHT22;55037;52.354;4.992;2023-07-13T08:49:59;24.00;68.80
68217;DHT22;55037;52.354;4.992;2023-07-13T08:52:39;23.80;67.90
68217;DHT22;55037;52.354;4.992;2023-07-13T08:55:21;23.70;67.60
68217;DHT22;55037;52.354;4.992;2023-07-13T08:57:54;23.60;67.20
68217;DHT22;55037;52.354;4.992;2023-07-13T09:00:33;23.80;68.10
68217;DHT22;55037;52.354;4.992;2023-07-13T09:03:02;24.00;68.40
68217;DHT22;55037;52.354;4.992;2023-07-13T09:05:35;24.10;67.20
68217;DHT22;55037;52.354;4.992;2023-07-13T09:10:46;23.80;67.50
68217;DHT22;55037;52.354;4.992;2023-07-13T09:13:35;23.80;66.30
68217;DHT22;55037;52.354;4.992;2023-07-13T09:16:07;23.80;67.10
68217;DHT22;55037;52.354;4.992;2023-07-13T09:19:01;23.90;67.10
68217;DHT22;55037;52.354;4.992;2023-07-13T09:21:32;24.30;68.70
68217;DHT22;55037;52.354;4.992;2023-07-13T09:24:27;25.60;63.80
68217;DHT22;55037;52.354;4.992;2023-07-13T09:26:56;25.90;63.00
68217;DHT22;55037;52.354;4.992;2023-07-13T09:29:32;27.00;62.70
68217;DHT22;55037;52.354;4.992;2023-07-13T09:32:04;28.60;59.40
68217;DHT22;55037;52.354;4.992;2023-07-13T09:34:33;29.30;52.20
68217;DHT22;55037;52.354;4.992;2023-07-13T09:37:01;28.20;50.60
68217;DHT22;55037;52.354;4.992;2023-07-13T09:39:40;27.20;58.10
68217;DHT22;55037;52.354;4.992;2023-07-13T09:42:15;28.50;56.80
68217;DHT22;55037;52.354;4.992;2023-07-13T09:45:01;30.40;47.20
68217;DHT22;55037;52.354;4.992;2023-07-13T09:47:38;31.40;46.40
68217;DHT22;55037;52.354;4.992;2023-07-13T09:50:14;32.30;42.20
68217;DHT22;55037;52.354;4.992;2023-07-13T09:52:49;31.90;42.20
68217;DHT22;55037;52.354;4.992;2023-07-13T09:55:32;30.80;46.40
68217;DHT22;55037;52.354;4.992;2023-07-13T09:58:23;29.40;46.50
68217;DHT22;55037;52.354;4.992;2023-07-13T10:01:09;28.60;50.60
68217;DHT22;55037;52.354;4.992;2023-07-13T10:03:37;27.80;52.40
68217;DHT22;55037;52.354;4.992;2023-07-13T10:06:18;27.30;55.00
68217;DHT22;55037;52.354;4.992;2023-07-13T10:08:47;27.20;55.40
68217;DHT22;55037;52.354;4.992;2023-07-13T10:11:26;27.00;58.10
68217;DHT22;55037;52.354;4.992;2023-07-13T10:13:56;26.80;56.30
68217;DHT22;55037;52.354;4.992;2023-07-13T10:16:26;26.40;55.10
68217;DHT22;55037;52.354;4.992;2023-07-13T10:19:11;26.30;58.60
68217;DHT22;55037;52.354;4.992;2023-07-13T10:21:59;26.70;58.80
68217;DHT22;55037;52.354;4.992;2023-07-13T10:24:32;26.70;59.10
68217;DHT22;55037;52.354;4.992;2023-07-13T10:29:53;28.50;51.60
68217;DHT22;55037;52.354;4.992;2023-07-13T10:32:24;28.50;52.10
68217;DHT22;55037;52.354;4.992;2023-07-13T10:34:52;29.40;51.30
68217;DHT22;55037;52.354;4.992;2023-07-13T10:37:26;31.00;44.80
68217;DHT22;55037;52.354;4.992;2023-07-13T10:39:55;32.50;40.70
68217;DHT22;55037;52.354;4.992;2023-07-13T10:42:33;33.80;39.30
68217;DHT22;55037;52.354;4.992;2023-07-13T10:45:11;34.10;35.70
68217;DHT22;55037;52.354;4.992;2023-07-13T10:47:39;33.70;35.60
68217;DHT22;55037;52.354;4.992;2023-07-13T10:50:17;33.20;36.90
68217;DHT22;55037;52.354;4.992;2023-07-13T10:52:47;32.70;38.70
68217;DHT22;55037;52.354;4.992;2023-07-13T10:58:36;32.50;39.40
68217;DHT22;55037;52.354;4.992;2023-07-13T11:01:10;32.50;40.40
68217;DHT22;55037;52.354;4.992;2023-07-13T11:03:56;33.50;38.10
68217;DHT22;55037;52.354;4.992;2023-07-13T11:06:39;34.60;35.90
68217;DHT22;55037;52.354;4.992;2023-07-13T11:09:40;35.00;35.30
68217;DHT22;55037;52.354;4.992;2023-07-13T11:22:45;31.60;40.10
68217;DHT22;55037;52.354;4.992;2023-07-13T11:36:15;34.50;34.70
68217;DHT22;55037;52.354;4.992;2023-07-13T11:39:04;33.40;33.50
68217;DHT22;55037;52.354;4.992;2023-07-13T11:41:43;32.80;35.00
68217;DHT22;55037;52.354;4.992;2023-07-13T11:44:14;32.20;36.70
68217;DHT22;55037;52.354;4.992;2023-07-13T11:46:53;32.60;36.60
68217;DHT22;55037;52.354;4.992;2023-07-13T11:49:24;32.60;36.10
68217;DHT22;55037;52.354;4.992;2023-07-13T11:51:54;32.80;37.60
68217;DHT22;55037;52.354;4.992;2023-07-13T11:57:02;33.80;34.90
68217;DHT22;55037;52.354;4.992;2023-07-13T11:59:38;34.50;36.20
68217;DHT22;55037;52.354;4.992;2023-07-13T12:02:33;35.10;35.10
68217;DHT22;55037;52.354;4.992;2023-07-13T12:05:02;33.90;35.30
68217;DHT22;55037;52.354;4.992;2023-07-13T12:07:32;33.40;35.10
68217;DHT22;55037;52.354;4.992;2023-07-13T12:10:02;32.90;37.30
68217;DHT22;55037;52.354;4.992;2023-07-13T12:12:31;32.10;37.10
68217;DHT22;55037;52.354;4.992;2023-07-13T12:14:59;31.90;39.30
68217;DHT22;55037;52.354;4.992;2023-07-13T12:17:27;32.00;38.30
68217;DHT22;55037;52.354;4.992;2023-07-13T12:19:55;32.40;37.20
68217;DHT22;55037;52.354;4.992;2023-07-13T12:22:23;32.80;37.70
68217;DHT22;55037;52.354;4.992;2023-07-13T12:24:51;33.30;36.40
68217;DHT22;55037;52.354;4.992;2023-07-13T12:27:23;33.70;35.80
68217;DHT22;55037;52.354;4.992;2023-07-13T12:30:00;33.90;35.50
68217;DHT22;55037;52.354;4.992;2023-07-13T12:32:28;33.80;34.70
68217;DHT22;55037;52.354;4.992;2023-07-13T12:35:17;33.70;36.80
68217;DHT22;55037;52.354;4.992;2023-07-13T12:37:51;34.20;39.60
68217;DHT22;55037;52.354;4.992;2023-07-13T12:40:20;34.40;34.00
68217;DHT22;55037;52.354;4.992;2023-07-13T12:42:52;33.80;36.10
68217;DHT22;55037;52.354;4.992;2023-07-13T12:45:25;34.00;37.20
68217;DHT22;55037;52.354;4.992;2023-07-13T12:48:03;33.70;37.00
68217;DHT22;55037;52.354;4.992;2023-07-13T12:50:40;34.10;37.20
68217;DHT22;55037;52.354;4.992;2023-07-13T12:53:16;34.60;37.70
68217;DHT22;55037;52.354;4.992;2023-07-13T12:55:55;34.40;35.40
68217;DHT22;55037;52.354;4.992;2023-07-13T12:58:28;33.80;38.40
68217;DHT22;55037;52.354;4.992;2023-07-13T13:00:58;33.90;37.00
68217;DHT22;55037;52.354;4.992;2023-07-13T13:06:23;33.60;37.70
68217;DHT22;55037;52.354;4.992;2023-07-13T13:08:53;33.80;37.00
68217;DHT22;55037;52.354;4.992;2023-07-13T13:11:22;34.00;36.50
68217;DHT22;55037;52.354;4.992;2023-07-13T13:13:50;33.20;36.40
68217;DHT22;55037;52.354;4.992;2023-07-13T13:16:35;32.30;38.60
68217;DHT22;55037;52.354;4.992;2023-07-13T13:21:43;32.30;42.70
68217;DHT22;55037;52.354;4.992;2023-07-13T13:24:12;31.90;38.90
68217;DHT22;55037;52.354;4.992;2023-07-13T13:26:41;30.90;41.20
68217;DHT22;55037;52.354;4.992;2023-07-13T13:29:20;30.40;43.30
68217;DHT22;55037;52.354;4.992;2023-07-13T13:31:52;30.30;42.40
68217;DHT22;55037;52.354;4.992;2023-07-13T13:34:24;29.40;46.00
68217;DHT22;55037;52.354;4.992;2023-07-13T13:36:52;28.60;47.80
68217;DHT22;55037;52.354;4.992;2023-07-13T13:39:30;28.10;48.60
68217;DHT22;55037;52.354;4.992;2023-07-13T13:41:59;28.00;52.40
68217;DHT22;55037;52.354;4.992;2023-07-13T13:44:29;28.80;57.50
68217;DHT22;55037;52.354;4.992;2023-07-13T13:46:57;29.80;47.60
68217;DHT22;55037;52.354;4.992;2023-07-13T13:49:26;30.20;46.80
68217;DHT22;55037;52.354;4.992;2023-07-13T13:51:54;30.60;49.50
68217;DHT22;55037;52.354;4.992;2023-07-13T13:54:23;30.60;47.80
68217;DHT22;55037;52.354;4.992;2023-07-13T13:56:51;30.50;48.40
68217;DHT22;55037;52.354;4.992;2023-07-13T13:59:19;30.60;46.20
68217;DHT22;55037;52.354;4.992;2023-07-13T14:01:47;30.60;45.20
68217;DHT22;55037;52.354;4.992;2023-07-13T14:04:18;30.80;49.50
68217;DHT22;55037;52.354;4.992;2023-07-13T14:06:47;31.10;44.40
68217;DHT22;55037;52.354;4.992;2023-07-13T14:09:17;31.00;45.10
68217;DHT22;55037;52.354;4.992;2023-07-13T14:11:48;30.40;43.60
68217;DHT22;55037;52.354;4.992;2023-07-13T14:14:23;29.40;47.20
68217;DHT22;55037;52.354;4.992;2023-07-13T14:16:51;29.10;49.40
68217;DHT22;55037;52.354;4.992;2023-07-13T14:19:22;28.40;52.70
68217;DHT22;55037;52.354;4.992;2023-07-13T14:21:49;28.40;50.50
68217;DHT22;55037;52.354;4.992;2023-07-13T14:24:20;28.20;49.70
68217;DHT22;55037;52.354;4.992;2023-07-13T14:26:48;28.80;55.30
68217;DHT22;55037;52.354;4.992;2023-07-13T14:29:19;29.30;55.00
68217;DHT22;55037;52.354;4.992;2023-07-13T14:31:51;29.80;47.20
68217;DHT22;55037;52.354;4.992;2023-07-13T14:34:18;30.00;47.00
68217;DHT22;55037;52.354;4.992;2023-07-13T14:36:48;30.00;44.70
68217;DHT22;55037;52.354;4.992;2023-07-13T14:39:19;30.10;48.60
68217;DHT22;55037;52.354;4.992;2023-07-13T14:41:52;30.20;43.20
68217;DHT22;55037;52.354;4.992;2023-07-13T14:44:30;30.10;47.20
68217;DHT22;55037;52.354;4.992;2023-07-13T14:47:00;30.00;46.60
68217;DHT22;55037;52.354;4.992;2023-07-13T14:49:40;29.80;47.70
68217;DHT22;55037;52.354;4.992;2023-07-13T14:52:18;29.80;44.90
68217;DHT22;55037;52.354;4.992;2023-07-13T14:54:46;29.60;45.80
68217;DHT22;55037;52.354;4.992;2023-07-13T14:57:18;29.80;49.60
68217;DHT22;55037;52.354;4.992;2023-07-13T14:59:47;30.10;46.60
68217;DHT22;55037;52.354;4.992;2023-07-13T15:04:53;30.10;46.30
68217;DHT22;55037;52.354;4.992;2023-07-13T15:07:22;30.10;46.20
68217;DHT22;55037;52.354;4.992;2023-07-13T15:09:50;30.00;46.20
68217;DHT22;55037;52.354;4.992;2023-07-13T15:12:18;29.90;47.10
68217;DHT22;55037;52.354;4.992;2023-07-13T15:14:49;29.60;45.80
68217;DHT22;55037;52.354;4.992;2023-07-13T15:17:37;29.40;48.70
68217;DHT22;55037;52.354;4.992;2023-07-13T15:22:51;29.00;50.80
68217;DHT22;55037;52.354;4.992;2023-07-13T15:25:21;28.80;48.70
68217;DHT22;55037;52.354;4.992;2023-07-13T15:27:49;28.50;49.60
68217;DHT22;55037;52.354;4.992;2023-07-13T15:30:17;28.60;50.90
68217;DHT22;55037;52.354;4.992;2023-07-13T15:32:45;28.60;52.10
68217;DHT22;55037;52.354;4.992;2023-07-13T15:35:15;28.70;51.20
68217;DHT22;55037;52.354;4.992;2023-07-13T15:37:43;28.80;52.10
68217;DHT22;55037;52.354;4.992;2023-07-13T15:40:12;29.10;48.40
68217;DHT22;55037;52.354;4.992;2023-07-13T15:42:41;28.90;48.70
68217;DHT22;55037;52.354;4.992;2023-07-13T15:45:21;28.50;46.90
68217;DHT22;55037;52.354;4.992;2023-07-13T15:47:51;27.80;51.30
68217;DHT22;55037;52.354;4.992;2023-07-13T15:50:23;27.50;52.90
68217;DHT22;55037;52.354;4.992;2023-07-13T15:52:53;27.00;52.30
68217;DHT22;55037;52.354;4.992;2023-07-13T15:55:22;26.80;53.90
68217;DHT22;55037;52.354;4.992;2023-07-13T15:57:52;27.10;53.60
68217;DHT22;55037;52.354;4.992;2023-07-13T16:00:21;27.10;49.70
68217;DHT22;55037;52.354;4.992;2023-07-13T16:02:49;26.80;50.40
68217;DHT22;55037;52.354;4.992;2023-07-13T16:05:18;26.30;52.30
68217;DHT22;55037;52.354;4.992;2023-07-13T16:07:47;25.90;56.70
68217;DHT22;55037;52.354;4.992;2023-07-13T16:10:21;26.00;57.50
68217;DHT22;55037;52.354;4.992;2023-07-13T16:12:49;26.40;55.10
68217;DHT22;55037;52.354;4.992;2023-07-13T16:15:19;26.50;54.60
68217;DHT22;55037;52.354;4.992;2023-07-13T16:17:48;26.70;55.20
68217;DHT22;55037;52.354;4.992;2023-07-13T16:20:17;26.70;54.40
68217;DHT22;55037;52.354;4.992;2023-07-13T16:22:46;27.00;53.60
68217;DHT22;55037;52.354;4.992;2023-07-13T16:27:48;27.10;50.00
68217;DHT22;55037;52.354;4.992;2023-07-13T16:30:21;26.90;51.30
68217;DHT22;55037;52.354;4.992;2023-07-13T16:32:49;26.50;52.10
68217;DHT22;55037;52.354;4.992;2023-07-13T16:35:21;26.20;56.30
68217;DHT22;55037;52.354;4.992;2023-07-13T16:37:49;26.10;56.40
68217;DHT22;55037;52.354;4.992;2023-07-13T16:40:32;26.40;56.40